sensor_id;sensor_type;location;lat;lon;timestamp;P1;durP1;ratioP1;P2;durP2;ratioP2
23632;SDS011;11993;48.748;9.166;2022-12-16T00:00:06;60.90;;;35.17;;
23632;SDS011;11993;48.748;9.166;2022-12-16T00:02:33;57.20;;;31.90;;
23632;SDS011;11993;48.748;9.166;2022-12-16T00:04:59;51.33;;;31.08;;
23632;SDS011;11993;48.748;9.166;2022-12-16T00:07:25;57.17;;;32.25;;
23632;SDS011;11993;48.748;9.166;2022-12-16T00:09:50;56.40;;;31.60;;
23632;SDS011;11993;48.748;9.166;2022-12-16T00:12:16;55.65;;;31.02;;
23632;SDS011;11993;48.748;9.166;2022-12-16T00:14:41;55.97;;;29.92;;
23632;SDS011;11993;48.748;9.166;2022-12-16T00:17:07;56.15;;;33.88;;
23632;SDS011;11993;48.748;9.166;2022-12-16T00:19:34;58.63;;;31.23;;
23632;SDS011;11993;48.748;9.166;2022-12-16T00:21:59;61.05;;;33.10;;
23632;SDS011;11993;48.748;9.166;2022-12-16T00:24:25;57.45;;;30.77;;
23632;SDS011;11993;48.748;9.166;2022-12-16T00:26:50;53.15;;;30.60;;
23632;SDS011;11993;48.748;9.166;2022-12-16T00:29:16;57.65;;;31.23;;
23632;SDS011;11993;48.748;9.166;2022-12-16T00:31:42;63.22;;;35.25;;
23632;SDS011;11993;48.748;9.166;2022-12-16T00:34:11;55.53;;;30.92;;
23632;SDS011;11993;48.748;9.166;2022-12-16T00:36:40;63.30;;;35.60;;
23632;SDS011;11993;48.748;9.166;2022-12-16T00:39:06;58.95;;;32.85;;
23632;SDS011;11993;48.748;9.166;2022-12-16T00:41:32;58.28;;;32.45;;
23632;SDS011;11993;48.748;9.166;2022-12-16T00:43:57;62.10;;;34.40;;
23632;SDS011;11993;48.748;9.166;2022-12-16T00:46:23;63.55;;;35.38;;
23632;SDS011;11993;48.748;9.166;2022-12-16T00:48:48;65.78;;;35.90;;
23632;SDS011;11993;48.748;9.166;2022-12-16T00:51:14;61.78;;;35.15;;
23632;SDS011;11993;48.748;9.166;2022-12-16T00:53:39;55.70;;;31.40;;
23632;SDS011;11993;48.748;9.166;2022-12-16T00:56:06;57.47;;;33.17;;
23632;SDS011;11993;48.748;9.166;2022-12-16T00:58:34;56.60;;;32.03;;
23632;SDS011;11993;48.748;9.166;2022-12-16T01:01:00;66.03;;;34.80;;
23632;SDS011;11993;48.748;9.166;2022-12-16T01:03:26;70.88;;;36.63;;
23632;SDS011;11993;48.748;9.166;2022-12-16T01:05:52;63.47;;;34.58;;
23632;SDS011;11993;48.748;9.166;2022-12-16T01:08:18;66.78;;;37.20;;
23632;SDS011;11993;48.748;9.166;2022-12-16T01:10:50;57.42;;;33.15;;
23632;SDS011;11993;48.748;9.166;2022-12-16T01:13:17;60.80;;;33.47;;
23632;SDS011;11993;48.748;9.166;2022-12-16T01:15:43;57.38;;;32.83;;
23632;SDS011;11993;48.748;9.166;2022-12-16T01:18:09;63.42;;;34.72;;
23632;SDS011;11993;48.748;9.166;2022-12-16T01:20:35;64.40;;;36.03;;
23632;SDS011;11993;48.748;9.166;2022-12-16T01:23:00;60.33;;;32.35;;
23632;SDS011;11993;48.748;9.166;2022-12-16T01:25:26;58.20;;;32.22;;
23632;SDS011;11993;48.748;9.166;2022-12-16T01:27:52;66.85;;;35.08;;
23632;SDS011;11993;48.748;9.166;2022-12-16T01:30:17;64.93;;;33.30;;
23632;SDS011;11993;48.748;9.166;2022-12-16T01:32:43;66.28;;;34.63;;
23632;SDS011;11993;48.748;9.166;2022-12-16T01:35:08;60.25;;;32.90;;
23632;SDS011;11993;48.748;9.166;2022-12-16T01:37:37;63.67;;;32.97;;
23632;SDS011;11993;48.748;9.166;2022-12-16T01:40:03;60.17;;;34.90;;
23632;SDS011;11993;48.748;9.166;2022-12-16T01:42:38;59.95;;;31.45;;
23632;SDS011;11993;48.748;9.166;2022-12-16T01:48:50;56.88;;;30.33;;
23632;SDS011;11993;48.748;9.166;2022-12-16T01:50:55;54.67;;;29.70;;
23632;SDS011;11993;48.748;9.166;2022-12-16T01:53:26;60.53;;;33.85;;
23632;SDS011;11993;48.748;9.166;2022-12-16T01:55:52;64.25;;;34.83;;
23632;SDS011;11993;48.748;9.166;2022-12-16T01:58:25;65.88;;;34.97;;
23632;SDS011;11993;48.748;9.166;2022-12-16T02:00:54;65.40;;;34.83;;
23632;SDS011;11993;48.748;9.166;2022-12-16T02:03:19;66.20;;;33.78;;
23632;SDS011;11993;48.748;9.166;2022-12-16T02:05:45;68.10;;;34.78;;
23632;SDS011;11993;48.748;9.166;2022-12-16T02:08:12;60.90;;;32.55;;
23632;SDS011;11993;48.748;9.166;2022-12-16T02:18:25;59.13;;;31.55;;
23632;SDS011;11993;48.748;9.166;2022-12-16T02:21:20;51.95;;;29.23;;
23632;SDS011;11993;48.748;9.166;2022-12-16T02:24:29;55.90;;;32.35;;
23632;SDS011;11993;48.748;9.166;2022-12-16T02:30:05;58.17;;;29.35;;
23632;SDS011;11993;48.748;9.166;2022-12-16T02:33:11;52.00;;;28.55;;
23632;SDS011;11993;48.748;9.166;2022-12-16T02:41:46;64.18;;;33.30;;
23632;SDS011;11993;48.748;9.166;2022-12-16T02:44:15;54.65;;;29.63;;
23632;SDS011;11993;48.748;9.166;2022-12-16T02:46:43;59.92;;;30.85;;
23632;SDS011;11993;48.748;9.166;2022-12-16T02:51:44;56.72;;;31.70;;
23632;SDS011;11993;48.748;9.166;2022-12-16T02:54:11;57.15;;;29.45;;
23632;SDS011;11993;48.748;9.166;2022-12-16T02:56:40;63.75;;;33.55;;
23632;SDS011;11993;48.748;9.166;2022-12-16T03:01:45;61.85;;;33.63;;
23632;SDS011;11993;48.748;9.166;2022-12-16T03:04:15;54.63;;;30.15;;
23632;SDS011;11993;48.748;9.166;2022-12-16T03:06:49;54.20;;;30.05;;
23632;SDS011;11993;48.748;9.166;2022-12-16T03:09:27;56.03;;;30.20;;
23632;SDS011;11993;48.748;9.166;2022-12-16T03:11:55;54.53;;;30.85;;
23632;SDS011;11993;48.748;9.166;2022-12-16T03:14:24;52.75;;;30.92;;
23632;SDS011;11993;48.748;9.166;2022-12-16T03:16:53;59.22;;;31.38;;
23632;SDS011;11993;48.748;9.166;2022-12-16T03:19:20;48.67;;;28.02;;
23632;SDS011;11993;48.748;9.166;2022-12-16T03:22:05;54.97;;;29.80;;
23632;SDS011;11993;48.748;9.166;2022-12-16T03:24:37;55.10;;;30.70;;
23632;SDS011;11993;48.748;9.166;2022-12-16T03:32:28;53.80;;;29.38;;
23632;SDS011;11993;48.748;9.166;2022-12-16T03:37:40;48.40;;;28.08;;
23632;SDS011;11993;48.748;9.166;2022-12-16T03:40:08;50.22;;;27.45;;
23632;SDS011;11993;48.748;9.166;2022-12-16T03:42:35;54.45;;;30.85;;
23632;SDS011;11993;48.748;9.166;2022-12-16T03:45:03;54.92;;;30.17;;
23632;SDS011;11993;48.748;9.166;2022-12-16T03:47:30;50.83;;;28.52;;
23632;SDS011;11993;48.748;9.166;2022-12-16T03:49:56;45.72;;;26.90;;
23632;SDS011;11993;48.748;9.166;2022-12-16T03:52:22;51.22;;;27.63;;
23632;SDS011;11993;48.748;9.166;2022-12-16T03:54:47;48.25;;;29.55;;
23632;SDS011;11993;48.748;9.166;2022-12-16T03:57:13;54.65;;;31.23;;
23632;SDS011;11993;48.748;9.166;2022-12-16T03:59:38;53.22;;;29.17;;
23632;SDS011;11993;48.748;9.166;2022-12-16T04:02:04;46.30;;;28.25;;
23632;SDS011;11993;48.748;9.166;2022-12-16T04:04:29;47.10;;;26.60;;
23632;SDS011;11993;48.748;9.166;2022-12-16T04:06:55;47.13;;;26.85;;
23632;SDS011;11993;48.748;9.166;2022-12-16T04:09:39;46.42;;;28.10;;
23632;SDS011;11993;48.748;9.166;2022-12-16T04:12:06;47.95;;;27.50;;
23632;SDS011;11993;48.748;9.166;2022-12-16T04:17:35;48.67;;;26.45;;
23632;SDS011;11993;48.748;9.166;2022-12-16T04:20:19;48.67;;;26.55;;
23632;SDS011;11993;48.748;9.166;2022-12-16T04:23:09;51.85;;;26.67;;
23632;SDS011;11993;48.748;9.166;2022-12-16T04:25:54;61.30;;;31.00;;
23632;SDS011;11993;48.748;9.166;2022-12-16T04:28:19;52.45;;;27.90;;
23632;SDS011;11993;48.748;9.166;2022-12-16T04:30:45;44.90;;;26.80;;
23632;SDS011;11993;48.748;9.166;2022-12-16T04:33:11;37.72;;;23.38;;
23632;SDS011;11993;48.748;9.166;2022-12-16T04:35:57;46.85;;;24.55;;
23632;SDS011;11993;48.748;9.166;2022-12-16T04:38:42;43.30;;;23.75;;
23632;SDS011;11993;48.748;9.166;2022-12-16T04:41:26;42.95;;;24.25;;
23632;SDS011;11993;48.748;9.166;2022-12-16T04:44:10;47.40;;;23.20;;
23632;SDS011;11993;48.748;9.166;2022-12-16T04:46:54;36.30;;;21.25;;
23632;SDS011;11993;48.748;9.166;2022-12-16T04:49:38;45.35;;;24.83;;
23632;SDS011;11993;48.748;9.166;2022-12-16T04:52:23;40.67;;;22.20;;
23632;SDS011;11993;48.748;9.166;2022-12-16T04:55:08;44.63;;;20.77;;
23632;SDS011;11993;48.748;9.166;2022-12-16T04:57:55;42.17;;;22.83;;
23632;SDS011;11993;48.748;9.166;2022-12-16T05:00:41;48.10;;;22.02;;
23632;SDS011;11993;48.748;9.166;2022-12-16T05:03:26;41.03;;;23.10;;
23632;SDS011;11993;48.748;9.166;2022-12-16T05:06:10;44.38;;;24.08;;
23632;SDS011;11993;48.748;9.166;2022-12-16T05:08:55;49.10;;;24.75;;
23632;SDS011;11993;48.748;9.166;2022-12-16T05:11:39;52.63;;;25.27;;
23632;SDS011;11993;48.748;9.166;2022-12-16T05:14:24;40.75;;;21.67;;
23632;SDS011;11993;48.748;9.166;2022-12-16T05:17:08;65.97;;;23.75;;
23632;SDS011;11993;48.748;9.166;2022-12-16T05:19:52;45.03;;;21.60;;
23632;SDS011;11993;48.748;9.166;2022-12-16T05:22:36;41.28;;;21.55;;
23632;SDS011;11993;48.748;9.166;2022-12-16T05:25:20;40.65;;;20.15;;
23632;SDS011;11993;48.748;9.166;2022-12-16T05:28:05;37.53;;;20.13;;
23632;SDS011;11993;48.748;9.166;2022-12-16T05:30:49;42.42;;;21.60;;
23632;SDS011;11993;48.748;9.166;2022-12-16T05:33:33;44.10;;;21.20;;
23632;SDS011;11993;48.748;9.166;2022-12-16T05:36:18;34.00;;;19.55;;
23632;SDS011;11993;48.748;9.166;2022-12-16T05:39:02;34.58;;;19.58;;
23632;SDS011;11993;48.748;9.166;2022-12-16T05:41:47;36.20;;;20.15;;
23632;SDS011;11993;48.748;9.166;2022-12-16T05:44:31;34.58;;;19.55;;
23632;SDS011;11993;48.748;9.166;2022-12-16T05:47:15;38.85;;;20.23;;
23632;SDS011;11993;48.748;9.166;2022-12-16T05:49:59;40.15;;;21.42;;
23632;SDS011;11993;48.748;9.166;2022-12-16T05:52:47;36.63;;;20.00;;
23632;SDS011;11993;48.748;9.166;2022-12-16T05:55:35;46.13;;;21.88;;
23632;SDS011;11993;48.748;9.166;2022-12-16T05:58:19;41.17;;;20.55;;
23632;SDS011;11993;48.748;9.166;2022-12-16T06:01:03;44.50;;;21.35;;
23632;SDS011;11993;48.748;9.166;2022-12-16T06:03:48;35.45;;;18.20;;
23632;SDS011;11993;48.748;9.166;2022-12-16T06:06:32;43.15;;;21.67;;
23632;SDS011;11993;48.748;9.166;2022-12-16T06:09:16;41.53;;;20.98;;
23632;SDS011;11993;48.748;9.166;2022-12-16T06:12:00;37.30;;;20.10;;
23632;SDS011;11993;48.748;9.166;2022-12-16T06:14:44;37.75;;;20.13;;
23632;SDS011;11993;48.748;9.166;2022-12-16T06:17:29;39.90;;;20.17;;
23632;SDS011;11993;48.748;9.166;2022-12-16T06:20:23;38.13;;;18.77;;
23632;SDS011;11993;48.748;9.166;2022-12-16T06:23:08;36.53;;;18.65;;
23632;SDS011;11993;48.748;9.166;2022-12-16T06:25:52;32.08;;;17.02;;
23632;SDS011;11993;48.748;9.166;2022-12-16T06:28:37;35.90;;;17.95;;
23632;SDS011;11993;48.748;9.166;2022-12-16T06:31:24;27.70;;;16.10;;
23632;SDS011;11993;48.748;9.166;2022-12-16T06:34:11;29.90;;;18.13;;
23632;SDS011;11993;48.748;9.166;2022-12-16T06:36:55;29.45;;;17.08;;
23632;SDS011;11993;48.748;9.166;2022-12-16T06:39:41;42.13;;;17.92;;
23632;SDS011;11993;48.748;9.166;2022-12-16T06:42:26;43.92;;;17.80;;
23632;SDS011;11993;48.748;9.166;2022-12-16T06:45:10;32.47;;;15.90;;
23632;SDS011;11993;48.748;9.166;2022-12-16T06:47:55;34.85;;;17.00;;
23632;SDS011;11993;48.748;9.166;2022-12-16T06:50:39;28.25;;;16.52;;
23632;SDS011;11993;48.748;9.166;2022-12-16T06:53:23;27.75;;;16.50;;
23632;SDS011;11993;48.748;9.166;2022-12-16T06:56:07;37.00;;;19.52;;
23632;SDS011;11993;48.748;9.166;2022-12-16T06:58:51;38.85;;;20.13;;
23632;SDS011;11993;48.748;9.166;2022-12-16T07:01:35;29.80;;;16.48;;
23632;SDS011;11993;48.748;9.166;2022-12-16T07:04:19;36.47;;;17.73;;
23632;SDS011;11993;48.748;9.166;2022-12-16T07:07:03;26.13;;;15.35;;
23632;SDS011;11993;48.748;9.166;2022-12-16T07:09:48;28.25;;;15.30;;
23632;SDS011;11993;48.748;9.166;2022-12-16T07:12:32;57.00;;;31.63;;
23632;SDS011;11993;48.748;9.166;2022-12-16T07:15:16;28.95;;;16.40;;
23632;SDS011;11993;48.748;9.166;2022-12-16T07:18:00;30.23;;;16.83;;
23632;SDS011;11993;48.748;9.166;2022-12-16T07:20:44;32.50;;;17.65;;
23632;SDS011;11993;48.748;9.166;2022-12-16T07:23:28;29.90;;;17.30;;
23632;SDS011;11993;48.748;9.166;2022-12-16T07:26:12;35.08;;;17.88;;
23632;SDS011;11993;48.748;9.166;2022-12-16T07:28:56;29.40;;;16.35;;
23632;SDS011;11993;48.748;9.166;2022-12-16T07:31:40;32.30;;;17.33;;
23632;SDS011;11993;48.748;9.166;2022-12-16T07:34:24;29.73;;;16.50;;
23632;SDS011;11993;48.748;9.166;2022-12-16T07:37:10;24.75;;;15.00;;
23632;SDS011;11993;48.748;9.166;2022-12-16T07:39:54;24.75;;;14.98;;
23632;SDS011;11993;48.748;9.166;2022-12-16T07:42:41;24.77;;;14.15;;
23632;SDS011;11993;48.748;9.166;2022-12-16T07:45:28;28.38;;;14.75;;
23632;SDS011;11993;48.748;9.166;2022-12-16T07:48:14;30.27;;;15.60;;
23632;SDS011;11993;48.748;9.166;2022-12-16T07:50:58;22.23;;;13.88;;
23632;SDS011;11993;48.748;9.166;2022-12-16T07:53:43;24.50;;;14.18;;
23632;SDS011;11993;48.748;9.166;2022-12-16T07:56:27;27.58;;;14.50;;
23632;SDS011;11993;48.748;9.166;2022-12-16T07:59:28;73.13;;;37.22;;
23632;SDS011;11993;48.748;9.166;2022-12-16T08:02:12;23.95;;;13.10;;
23632;SDS011;11993;48.748;9.166;2022-12-16T08:04:56;23.58;;;13.88;;
23632;SDS011;11993;48.748;9.166;2022-12-16T08:07:40;24.10;;;13.20;;
23632;SDS011;11993;48.748;9.166;2022-12-16T08:10:25;26.48;;;13.35;;
23632;SDS011;11993;48.748;9.166;2022-12-16T08:13:09;20.33;;;13.23;;
23632;SDS011;11993;48.748;9.166;2022-12-16T08:15:53;24.65;;;12.13;;
23632;SDS011;11993;48.748;9.166;2022-12-16T08:18:37;24.05;;;12.15;;
23632;SDS011;11993;48.748;9.166;2022-12-16T08:21:21;21.20;;;11.82;;
23632;SDS011;11993;48.748;9.166;2022-12-16T08:24:05;22.40;;;11.88;;
23632;SDS011;11993;48.748;9.166;2022-12-16T08:26:59;19.17;;;11.07;;
23632;SDS011;11993;48.748;9.166;2022-12-16T08:29:43;27.98;;;13.90;;
23632;SDS011;11993;48.748;9.166;2022-12-16T08:32:27;26.77;;;13.82;;
23632;SDS011;11993;48.748;9.166;2022-12-16T08:35:11;20.73;;;11.68;;
23632;SDS011;11993;48.748;9.166;2022-12-16T08:37:55;25.38;;;12.55;;
23632;SDS011;11993;48.748;9.166;2022-12-16T08:40:40;23.52;;;12.27;;
23632;SDS011;11993;48.748;9.166;2022-12-16T08:43:26;22.77;;;12.00;;
23632;SDS011;11993;48.748;9.166;2022-12-16T08:46:12;23.92;;;12.57;;
23632;SDS011;11993;48.748;9.166;2022-12-16T08:48:56;19.17;;;10.10;;
23632;SDS011;11993;48.748;9.166;2022-12-16T08:51:40;17.77;;;10.60;;
23632;SDS011;11993;48.748;9.166;2022-12-16T08:54:24;21.27;;;11.68;;
23632;SDS011;11993;48.748;9.166;2022-12-16T08:57:08;24.15;;;12.13;;
23632;SDS011;11993;48.748;9.166;2022-12-16T08:59:52;20.63;;;12.15;;
23632;SDS011;11993;48.748;9.166;2022-12-16T09:02:36;20.67;;;11.43;;
23632;SDS011;11993;48.748;9.166;2022-12-16T09:05:20;22.50;;;11.38;;
23632;SDS011;11993;48.748;9.166;2022-12-16T09:08:04;18.10;;;11.40;;
23632;SDS011;11993;48.748;9.166;2022-12-16T09:10:48;19.10;;;11.63;;
23632;SDS011;11993;48.748;9.166;2022-12-16T09:13:32;26.98;;;14.35;;
23632;SDS011;11993;48.748;9.166;2022-12-16T09:16:16;27.17;;;10.55;;
23632;SDS011;11993;48.748;9.166;2022-12-16T09:19:01;17.17;;;10.05;;
23632;SDS011;11993;48.748;9.166;2022-12-16T09:21:45;19.50;;;11.15;;
23632;SDS011;11993;48.748;9.166;2022-12-16T09:24:29;22.25;;;11.35;;
23632;SDS011;11993;48.748;9.166;2022-12-16T09:27:12;18.48;;;9.75;;
23632;SDS011;11993;48.748;9.166;2022-12-16T09:29:56;20.67;;;10.80;;
23632;SDS011;11993;48.748;9.166;2022-12-16T09:32:41;21.30;;;10.68;;
23632;SDS011;11993;48.748;9.166;2022-12-16T09:35:26;15.32;;;9.05;;
23632;SDS011;11993;48.748;9.166;2022-12-16T09:38:11;15.88;;;8.70;;
23632;SDS011;11993;48.748;9.166;2022-12-16T09:40:55;17.27;;;9.95;;
23632;SDS011;11993;48.748;9.166;2022-12-16T09:43:43;17.63;;;9.70;;
23632;SDS011;11993;48.748;9.166;2022-12-16T09:46:59;19.95;;;10.77;;
23632;SDS011;11993;48.748;9.166;2022-12-16T09:49:47;19.08;;;10.15;;
23632;SDS011;11993;48.748;9.166;2022-12-16T09:53:19;16.20;;;9.13;;
23632;SDS011;11993;48.748;9.166;2022-12-16T09:55:45;18.67;;;10.20;;
23632;SDS011;11993;48.748;9.166;2022-12-16T09:58:35;19.60;;;10.35;;
23632;SDS011;11993;48.748;9.166;2022-12-16T10:01:42;23.70;;;10.23;;
23632;SDS011;11993;48.748;9.166;2022-12-16T10:04:27;18.40;;;10.20;;
23632;SDS011;11993;48.748;9.166;2022-12-16T10:07:16;15.52;;;9.60;;
23632;SDS011;11993;48.748;9.166;2022-12-16T10:25:28;18.98;;;10.65;;
23632;SDS011;11993;48.748;9.166;2022-12-16T10:31:21;16.98;;;8.88;;
23632;SDS011;11993;48.748;9.166;2022-12-16T10:34:09;12.88;;;7.85;;
23632;SDS011;11993;48.748;9.166;2022-12-16T10:37:04;15.10;;;8.80;;
23632;SDS011;11993;48.748;9.166;2022-12-16T10:39:53;18.25;;;9.68;;
23632;SDS011;11993;48.748;9.166;2022-12-16T10:42:47;18.05;;;8.98;;
23632;SDS011;11993;48.748;9.166;2022-12-16T10:45:41;17.80;;;9.43;;
23632;SDS011;11993;48.748;9.166;2022-12-16T10:48:29;16.95;;;9.73;;
23632;SDS011;11993;48.748;9.166;2022-12-16T10:51:19;16.23;;;9.60;;
23632;SDS011;11993;48.748;9.166;2022-12-16T10:54:19;17.38;;;9.15;;
23632;SDS011;11993;48.748;9.166;2022-12-16T11:00:15;14.77;;;8.77;;
23632;SDS011;11993;48.748;9.166;2022-12-16T11:03:22;15.45;;;9.23;;
23632;SDS011;11993;48.748;9.166;2022-12-16T11:06:09;15.70;;;9.27;;
23632;SDS011;11993;48.748;9.166;2022-12-16T11:09:11;15.32;;;8.73;;
23632;SDS011;11993;48.748;9.166;2022-12-16T11:15:17;20.45;;;10.05;;
23632;SDS011;11993;48.748;9.166;2022-12-16T11:18:06;15.68;;;9.55;;
23632;SDS011;11993;48.748;9.166;2022-12-16T11:27:03;14.00;;;8.50;;
23632;SDS011;11993;48.748;9.166;2022-12-16T11:32:59;28.60;;;13.57;;
23632;SDS011;11993;48.748;9.166;2022-12-16T11:36:13;16.20;;;9.20;;
23632;SDS011;11993;48.748;9.166;2022-12-16T11:39:05;13.60;;;8.25;;
23632;SDS011;11993;48.748;9.166;2022-12-16T11:41:53;19.23;;;8.95;;
23632;SDS011;11993;48.748;9.166;2022-12-16T11:44:42;17.23;;;8.95;;
23632;SDS011;11993;48.748;9.166;2022-12-16T11:47:43;15.77;;;8.93;;
23632;SDS011;11993;48.748;9.166;2022-12-16T11:50:31;13.75;;;8.13;;
23632;SDS011;11993;48.748;9.166;2022-12-16T11:53:29;16.50;;;8.65;;
23632;SDS011;11993;48.748;9.166;2022-12-16T11:56:22;17.00;;;9.30;;
23632;SDS011;11993;48.748;9.166;2022-12-16T11:59:11;14.60;;;9.00;;
23632;SDS011;11993;48.748;9.166;2022-12-16T12:02:17;16.98;;;9.20;;
23632;SDS011;11993;48.748;9.166;2022-12-16T12:05:12;13.93;;;7.68;;
23632;SDS011;11993;48.748;9.166;2022-12-16T12:07:59;15.55;;;8.18;;
23632;SDS011;11993;48.748;9.166;2022-12-16T12:23:14;16.33;;;7.60;;
23632;SDS011;11993;48.748;9.166;2022-12-16T12:26:11;13.73;;;7.72;;
23632;SDS011;11993;48.748;9.166;2022-12-16T12:32:01;12.77;;;8.43;;
23632;SDS011;11993;48.748;9.166;2022-12-16T12:38:05;13.27;;;7.93;;
23632;SDS011;11993;48.748;9.166;2022-12-16T12:43:57;17.98;;;9.57;;
23632;SDS011;11993;48.748;9.166;2022-12-16T12:47:10;17.23;;;9.35;;
23632;SDS011;11993;48.748;9.166;2022-12-16T12:50:01;14.70;;;9.30;;
23632;SDS011;11993;48.748;9.166;2022-12-16T12:58:58;150.57;;;64.63;;
23632;SDS011;11993;48.748;9.166;2022-12-16T13:01:56;25.77;;;13.38;;
23632;SDS011;11993;48.748;9.166;2022-12-16T13:04:42;17.45;;;10.10;;
23632;SDS011;11993;48.748;9.166;2022-12-16T13:07:26;20.70;;;9.50;;
23632;SDS011;11993;48.748;9.166;2022-12-16T13:10:28;17.95;;;9.70;;
23632;SDS011;11993;48.748;9.166;2022-12-16T13:16:54;17.98;;;9.85;;
23632;SDS011;11993;48.748;9.166;2022-12-16T13:19:40;20.80;;;10.35;;
23632;SDS011;11993;48.748;9.166;2022-12-16T13:22:29;22.80;;;10.50;;
23632;SDS011;11993;48.748;9.166;2022-12-16T13:25:33;19.85;;;9.85;;
23632;SDS011;11993;48.748;9.166;2022-12-16T13:28:35;17.27;;;10.02;;
23632;SDS011;11993;48.748;9.166;2022-12-16T13:31:22;14.70;;;8.43;;
23632;SDS011;11993;48.748;9.166;2022-12-16T13:36:57;11.20;;;7.65;;
23632;SDS011;11993;48.748;9.166;2022-12-16T13:39:43;16.48;;;9.13;;
23632;SDS011;11993;48.748;9.166;2022-12-16T13:42:48;13.90;;;7.70;;
23632;SDS011;11993;48.748;9.166;2022-12-16T13:45:38;14.45;;;8.85;;
23632;SDS011;11993;48.748;9.166;2022-12-16T13:48:46;13.68;;;8.05;;
23632;SDS011;11993;48.748;9.166;2022-12-16T13:54:30;15.23;;;9.32;;
23632;SDS011;11993;48.748;9.166;2022-12-16T13:57:19;15.18;;;8.85;;
23632;SDS011;11993;48.748;9.166;2022-12-16T14:00:14;15.43;;;8.85;;
23632;SDS011;11993;48.748;9.166;2022-12-16T14:03:08;16.92;;;9.05;;
23632;SDS011;11993;48.748;9.166;2022-12-16T14:06:09;18.27;;;9.18;;
23632;SDS011;11993;48.748;9.166;2022-12-16T14:09:13;48.67;;;22.70;;
23632;SDS011;11993;48.748;9.166;2022-12-16T14:25:20;15.27;;;9.73;;
23632;SDS011;11993;48.748;9.166;2022-12-16T14:28:07;17.42;;;10.48;;
23632;SDS011;11993;48.748;9.166;2022-12-16T14:31:20;17.95;;;11.13;;
23632;SDS011;11993;48.748;9.166;2022-12-16T14:34:14;18.42;;;10.32;;
23632;SDS011;11993;48.748;9.166;2022-12-16T14:37:14;18.80;;;9.80;;
23632;SDS011;11993;48.748;9.166;2022-12-16T14:43:09;17.05;;;9.68;;
23632;SDS011;11993;48.748;9.166;2022-12-16T14:46:02;21.08;;;13.25;;
23632;SDS011;11993;48.748;9.166;2022-12-16T14:48:47;20.17;;;9.55;;
23632;SDS011;11993;48.748;9.166;2022-12-16T14:51:36;14.27;;;8.98;;
23632;SDS011;11993;48.748;9.166;2022-12-16T14:57:20;14.40;;;9.25;;
23632;SDS011;11993;48.748;9.166;2022-12-16T15:02:53;16.20;;;9.95;;
23632;SDS011;11993;48.748;9.166;2022-12-16T15:05:40;15.30;;;9.35;;
23632;SDS011;11993;48.748;9.166;2022-12-16T15:08:26;14.13;;;8.95;;
23632;SDS011;11993;48.748;9.166;2022-12-16T15:11:14;16.02;;;9.05;;
23632;SDS011;11993;48.748;9.166;2022-12-16T15:14:20;14.82;;;8.25;;
23632;SDS011;11993;48.748;9.166;2022-12-16T15:17:18;16.50;;;9.98;;
23632;SDS011;11993;48.748;9.166;2022-12-16T15:20:05;19.30;;;9.18;;
23632;SDS011;11993;48.748;9.166;2022-12-16T15:22:58;18.83;;;8.20;;
23632;SDS011;11993;48.748;9.166;2022-12-16T15:25:46;16.95;;;8.57;;
23632;SDS011;11993;48.748;9.166;2022-12-16T15:28:39;17.75;;;9.27;;
23632;SDS011;11993;48.748;9.166;2022-12-16T15:31:32;19.88;;;9.68;;
23632;SDS011;11993;48.748;9.166;2022-12-16T15:34:22;15.25;;;9.27;;
23632;SDS011;11993;48.748;9.166;2022-12-16T15:37:13;9.50;;;6.38;;
23632;SDS011;11993;48.748;9.166;2022-12-16T15:40:25;16.92;;;9.23;;
23632;SDS011;11993;48.748;9.166;2022-12-16T15:43:28;15.40;;;8.30;;
23632;SDS011;11993;48.748;9.166;2022-12-16T15:46:21;16.05;;;9.20;;
23632;SDS011;11993;48.748;9.166;2022-12-16T15:52:20;17.83;;;9.23;;
23632;SDS011;11993;48.748;9.166;2022-12-16T15:58:27;13.35;;;8.18;;
23632;SDS011;11993;48.748;9.166;2022-12-16T16:01:18;15.40;;;9.10;;
23632;SDS011;11993;48.748;9.166;2022-12-16T16:04:14;18.70;;;10.10;;
23632;SDS011;11993;48.748;9.166;2022-12-16T16:07:00;16.70;;;10.25;;
23632;SDS011;11993;48.748;9.166;2022-12-16T16:09:44;17.40;;;10.13;;
23632;SDS011;11993;48.748;9.166;2022-12-16T16:12:28;13.27;;;8.20;;
23632;SDS011;11993;48.748;9.166;2022-12-16T16:15:13;20.60;;;9.52;;
23632;SDS011;11993;48.748;9.166;2022-12-16T16:17:58;18.02;;;9.13;;
23632;SDS011;11993;48.748;9.166;2022-12-16T16:20:45;14.63;;;8.98;;
23632;SDS011;11993;48.748;9.166;2022-12-16T16:23:30;19.23;;;9.60;;
23632;SDS011;11993;48.748;9.166;2022-12-16T16:26:16;17.27;;;9.75;;
23632;SDS011;11993;48.748;9.166;2022-12-16T16:29:03;55.40;;;25.90;;
23632;SDS011;11993;48.748;9.166;2022-12-16T16:31:48;20.98;;;11.50;;
23632;SDS011;11993;48.748;9.166;2022-12-16T16:34:31;18.05;;;9.43;;
23632;SDS011;11993;48.748;9.166;2022-12-16T16:37:16;15.23;;;10.13;;
23632;SDS011;11993;48.748;9.166;2022-12-16T16:40:15;15.93;;;9.88;;
23632;SDS011;11993;48.748;9.166;2022-12-16T16:43:20;22.70;;;10.67;;
23632;SDS011;11993;48.748;9.166;2022-12-16T16:46:09;18.20;;;10.65;;
23632;SDS011;11993;48.748;9.166;2022-12-16T16:49:12;20.20;;;10.75;;
23632;SDS011;11993;48.748;9.166;2022-12-16T16:52:07;20.70;;;11.43;;
23632;SDS011;11993;48.748;9.166;2022-12-16T16:54:56;17.85;;;10.25;;
23632;SDS011;11993;48.748;9.166;2022-12-16T16:57:40;18.33;;;10.10;;
23632;SDS011;11993;48.748;9.166;2022-12-16T17:00:25;24.85;;;14.95;;
23632;SDS011;11993;48.748;9.166;2022-12-16T17:03:09;19.73;;;11.88;;
23632;SDS011;11993;48.748;9.166;2022-12-16T17:05:53;19.23;;;11.00;;
23632;SDS011;11993;48.748;9.166;2022-12-16T17:08:37;19.98;;;11.10;;
23632;SDS011;11993;48.748;9.166;2022-12-16T17:11:21;17.25;;;10.55;;
23632;SDS011;11993;48.748;9.166;2022-12-16T17:14:11;21.20;;;10.88;;
23632;SDS011;11993;48.748;9.166;2022-12-16T17:17:09;80.90;;;33.83;;
23632;SDS011;11993;48.748;9.166;2022-12-16T17:19:54;20.85;;;11.10;;
23632;SDS011;11993;48.748;9.166;2022-12-16T17:22:38;16.85;;;10.30;;
23632;SDS011;11993;48.748;9.166;2022-12-16T17:25:22;20.77;;;11.27;;
23632;SDS011;11993;48.748;9.166;2022-12-16T17:28:06;18.77;;;10.90;;
23632;SDS011;11993;48.748;9.166;2022-12-16T17:30:52;18.33;;;11.23;;
23632;SDS011;11993;48.748;9.166;2022-12-16T17:33:36;18.83;;;11.50;;
23632;SDS011;11993;48.748;9.166;2022-12-16T17:36:20;18.63;;;10.18;;
23632;SDS011;11993;48.748;9.166;2022-12-16T17:39:04;15.48;;;9.32;;
23632;SDS011;11993;48.748;9.166;2022-12-16T17:41:49;17.73;;;10.90;;
23632;SDS011;11993;48.748;9.166;2022-12-16T17:44:34;17.58;;;11.00;;
23632;SDS011;11993;48.748;9.166;2022-12-16T17:47:18;18.80;;;10.63;;
23632;SDS011;11993;48.748;9.166;2022-12-16T17:50:02;21.75;;;11.85;;
23632;SDS011;11993;48.748;9.166;2022-12-16T17:52:47;19.73;;;11.30;;
23632;SDS011;11993;48.748;9.166;2022-12-16T17:55:36;18.10;;;10.57;;
23632;SDS011;11993;48.748;9.166;2022-12-16T17:58:21;18.88;;;11.38;;
23632;SDS011;11993;48.748;9.166;2022-12-16T18:01:12;18.13;;;9.63;;
23632;SDS011;11993;48.748;9.166;2022-12-16T18:03:57;18.75;;;10.90;;
23632;SDS011;11993;48.748;9.166;2022-12-16T18:06:41;18.30;;;10.93;;
23632;SDS011;11993;48.748;9.166;2022-12-16T18:09:25;20.77;;;11.73;;
23632;SDS011;11993;48.748;9.166;2022-12-16T18:12:09;16.77;;;9.77;;
23632;SDS011;11993;48.748;9.166;2022-12-16T18:14:53;19.08;;;11.35;;